createdAt,value
2022-12-11T00:00:28.541Z,6.80
2022-12-11T00:02:57.966Z,7.43
2022-12-11T00:05:25.937Z,7.80
2022-12-11T00:07:53.796Z,7.20
2022-12-11T00:10:21.743Z,7.40
2022-12-11T00:12:49.670Z,6.70
2022-12-11T00:15:17.557Z,7.87
2022-12-11T00:17:45.331Z,7.57
2022-12-11T00:20:14.572Z,7.77
2022-12-11T00:22:42.373Z,7.27
2022-12-11T00:25:10.707Z,8.07
2022-12-11T00:27:39.060Z,8.13
2022-12-11T00:30:08.156Z,7.30
2022-12-11T00:32:37.702Z,7.37
2022-12-11T00:35:06.463Z,7.20
2022-12-11T00:37:35.646Z,6.97
2022-12-11T00:40:03.653Z,7.40
2022-12-11T00:42:31.487Z,7.33
2022-12-11T00:44:59.323Z,7.67
2022-12-11T00:47:27.142Z,7.57
2022-12-11T00:49:55.035Z,7.17
2022-12-11T00:52:24.651Z,7.10
2022-12-11T00:54:53.881Z,7.97
2022-12-11T00:57:21.799Z,7.83
2022-12-11T00:59:49.703Z,7.80
2022-12-11T01:02:17.591Z,7.93
2022-12-11T01:04:45.500Z,7.97
2022-12-11T01:07:14.249Z,8.00
2022-12-11T01:09:58.927Z,7.77
2022-12-11T01:12:28.531Z,8.13
2022-12-11T01:14:56.379Z,7.97
2022-12-11T01:17:24.183Z,7.70
2022-12-11T01:19:54.195Z,8.30
2022-12-11T01:22:22.805Z,7.93
2022-12-11T01:24:50.863Z,7.40
2022-12-11T01:27:18.814Z,6.83
2022-12-11T01:29:47.968Z,7.53
2022-12-11T01:32:15.912Z,7.27
2022-12-11T01:34:43.856Z,7.50
2022-12-11T01:37:11.788Z,7.50
2022-12-11T01:39:39.749Z,6.53
2022-12-11T01:42:10.321Z,7.80
2022-12-11T01:45:17.854Z,7.53
2022-12-11T01:47:47.204Z,7.37
2022-12-11T01:50:15.158Z,7.37
2022-12-11T01:52:44.359Z,8.00
2022-12-11T01:55:12.897Z,7.17
2022-12-11T01:57:43.327Z,6.77
2022-12-11T02:00:12.924Z,7.33
2022-12-11T02:02:46.780Z,7.17
2022-12-11T02:05:14.850Z,7.07
2022-12-11T02:07:47.215Z,5.93
2022-12-11T02:10:15.867Z,6.73
2022-12-11T02:12:53.650Z,6.23
2022-12-11T02:15:29.427Z,6.97
2022-12-11T02:18:06.359Z,5.97
2022-12-11T02:20:39.265Z,6.23
2022-12-11T02:23:34.286Z,6.57
2022-12-11T02:26:19.341Z,7.67
2022-12-11T02:28:52.001Z,7.10
2022-12-11T02:31:26.422Z,7.60
2022-12-11T02:33:58.889Z,7.37
2022-12-11T02:36:29.408Z,7.47
2022-12-11T02:38:59.833Z,7.00
2022-12-11T02:41:29.719Z,7.80
2022-12-11T02:44:00.185Z,8.00
2022-12-11T02:46:29.174Z,7.07
2022-12-11T02:48:57.620Z,7.50
2022-12-11T02:51:30.239Z,7.13
2022-12-11T02:54:00.086Z,7.47
2022-12-11T02:56:31.465Z,7.83
2022-12-11T02:59:04.525Z,7.57
2022-12-11T03:01:32.515Z,7.97
2022-12-11T03:04:00.492Z,8.10
2022-12-11T03:06:33.353Z,7.13
2022-12-11T03:09:01.222Z,7.67
2022-12-11T03:11:29.009Z,7.37
2022-12-11T03:13:57.166Z,6.83
2022-12-11T03:16:34.591Z,7.77
2022-12-11T03:19:11.700Z,7.13
2022-12-11T03:21:46.698Z,7.20
2022-12-11T03:24:20.713Z,7.10
2022-12-11T03:26:56.480Z,6.80
2022-12-11T03:29:29.282Z,6.80
2022-12-11T03:32:03.823Z,7.13
2022-12-11T03:34:36.548Z,7.27
2022-12-11T03:37:07.092Z,7.10
2022-12-11T03:39:39.739Z,7.50
2022-12-11T03:42:11.245Z,6.93
2022-12-11T03:44:39.539Z,7.43
2022-12-11T03:47:10.740Z,7.03
2022-12-11T03:49:42.613Z,6.53
2022-12-11T03:52:13.136Z,7.20
2022-12-11T03:54:42.017Z,7.30
2022-12-11T03:57:13.035Z,7.23
2022-12-11T03:59:40.896Z,7.30
2022-12-11T04:02:11.582Z,6.87
2022-12-11T04:04:40.548Z,7.10
2022-12-11T04:07:08.518Z,7.53
2022-12-11T04:09:36.689Z,6.93
2022-12-11T04:12:04.597Z,7.13
2022-12-11T04:14:55.606Z,7.03
2022-12-11T04:17:42.508Z,7.07
2022-12-11T04:20:29.673Z,6.60
2022-12-11T04:23:15.137Z,6.60
2022-12-11T04:25:43.013Z,6.50
2022-12-11T04:28:10.826Z,7.10
2022-12-11T04:30:38.842Z,6.20
2022-12-11T04:33:08.166Z,7.90
2022-12-11T04:35:36.909Z,7.70
2022-12-11T04:38:04.730Z,7.60
2022-12-11T04:40:32.665Z,6.90
2022-12-11T04:43:00.523Z,7.27
2022-12-11T04:45:28.338Z,7.30
2022-12-11T04:47:56.152Z,6.83
2022-12-11T04:50:25.569Z,7.27
2022-12-11T04:52:56.025Z,7.37
2022-12-11T04:55:24.558Z,7.10
2022-12-11T04:57:52.337Z,6.50
2022-12-11T05:00:20.424Z,7.30
2022-12-11T05:02:48.305Z,5.97
2022-12-11T05:05:16.194Z,6.83
2022-12-11T05:07:45.476Z,6.60
2022-12-11T05:10:13.368Z,7.23
2022-12-11T05:12:41.182Z,6.37
2022-12-11T05:15:10.111Z,6.67
2022-12-11T05:17:38.078Z,6.43
2022-12-11T05:20:06.799Z,6.50
2022-12-11T05:22:34.625Z,6.60
2022-12-11T05:25:03.877Z,7.30
2022-12-11T05:27:31.790Z,7.10
2022-12-11T05:29:59.875Z,6.80
2022-12-11T05:32:28.208Z,6.33
2022-12-11T05:34:56.198Z,6.07
2022-12-11T05:37:24.233Z,7.10
2022-12-11T05:39:52.113Z,6.97
2022-12-11T05:42:25.522Z,7.10
2022-12-11T05:44:56.640Z,6.70
2022-12-11T05:47:24.462Z,7.17
2022-12-11T05:49:52.466Z,6.57
2022-12-11T05:52:21.534Z,7.67
2022-12-11T05:54:50.223Z,7.17
2022-12-11T05:57:18.125Z,7.20
2022-12-11T05:59:47.363Z,7.23
2022-12-11T06:02:15.350Z,7.47
2022-12-11T06:04:43.344Z,6.77
2022-12-11T06:07:11.137Z,6.53
2022-12-11T06:09:39.047Z,6.00
2022-12-11T06:12:07.146Z,6.90
2022-12-11T06:14:35.007Z,6.47
2022-12-11T06:17:04.280Z,6.33
2022-12-11T06:19:36.783Z,6.43
2022-12-11T06:22:05.132Z,6.70
2022-12-11T06:24:32.966Z,6.60
2022-12-11T06:27:00.815Z,6.70
2022-12-11T06:29:28.610Z,6.17
2022-12-11T06:31:56.447Z,6.73
2022-12-11T06:34:25.624Z,7.03
2022-12-11T06:36:53.497Z,6.77
2022-12-11T06:39:21.313Z,6.03
2022-12-11T06:41:49.226Z,6.23
2022-12-11T06:44:17.341Z,6.70
2022-12-11T06:46:45.225Z,6.47
2022-12-11T06:49:13.010Z,6.77
2022-12-11T06:51:42.244Z,6.27
2022-12-11T06:54:10.236Z,7.47
2022-12-11T06:56:38.115Z,6.73
2022-12-11T06:59:07.641Z,6.73
2022-12-11T07:01:35.763Z,6.90
2022-12-11T07:04:03.647Z,7.10
2022-12-11T07:06:31.504Z,6.87
2022-12-11T07:09:00.696Z,6.47
2022-12-11T07:11:28.547Z,7.70
2022-12-11T07:13:56.321Z,6.90
2022-12-11T07:16:24.218Z,7.10
2022-12-11T07:18:52.932Z,6.00
2022-12-11T07:21:21.853Z,6.73
2022-12-11T07:23:50.099Z,7.00
2022-12-11T07:26:22.039Z,6.87
2022-12-11T07:28:50.731Z,7.03
2022-12-11T07:31:21.777Z,7.63
2022-12-11T07:33:54.874Z,7.50
2022-12-11T07:36:22.969Z,7.33
2022-12-11T07:38:50.869Z,7.80
2022-12-11T07:41:20.429Z,7.63
2022-12-11T07:43:54.366Z,7.87
2022-12-11T07:46:25.318Z,7.90
2022-12-11T07:48:53.565Z,7.83
2022-12-11T07:51:26.284Z,7.47
2022-12-11T07:53:55.477Z,7.37
2022-12-11T07:56:24.988Z,8.23
2022-12-11T07:58:52.949Z,8.13
2022-12-11T08:01:22.461Z,7.60
2022-12-11T08:03:50.790Z,7.87
2022-12-11T08:06:19.149Z,8.27
2022-12-11T08:08:47.567Z,7.50
2022-12-11T08:11:16.557Z,9.17
2022-12-11T08:13:45.919Z,9.60
2022-12-11T08:16:15.739Z,10.27
2022-12-11T08:18:45.095Z,11.10
2022-12-11T08:21:15.616Z,10.43
2022-12-11T08:23:44.126Z,10.67
2022-12-11T08:26:17.520Z,12.40
2022-12-11T08:28:46.786Z,11.90
2022-12-11T08:31:16.056Z,12.87
2022-12-11T08:33:44.630Z,13.63
2022-12-11T08:36:13.987Z,13.77
2022-12-11T08:38:42.195Z,13.63
2022-12-11T08:41:11.208Z,15.33
2022-12-11T08:43:39.957Z,19.40
2022-12-11T08:46:09.499Z,16.53
2022-12-11T08:48:38.893Z,16.03
2022-12-11T08:51:08.713Z,17.07
2022-12-11T08:53:36.591Z,16.37
2022-12-11T08:56:05.652Z,16.73
2022-12-11T08:58:33.884Z,17.80
2022-12-11T09:01:01.820Z,17.67
2022-12-11T09:03:31.007Z,17.53
2022-12-11T09:05:58.947Z,16.00
2022-12-11T09:08:26.872Z,15.57
2022-12-11T09:10:54.688Z,15.60
2022-12-11T09:13:22.545Z,15.80
2022-12-11T09:15:50.406Z,14.23
2022-12-11T09:18:18.248Z,16.53
2022-12-11T09:20:47.408Z,19.17
2022-12-11T09:23:15.350Z,18.57
2022-12-11T09:25:43.169Z,16.40
2022-12-11T09:28:11.110Z,16.57
2022-12-11T09:30:39.030Z,17.70
2022-12-11T09:33:06.930Z,17.13
2022-12-11T09:35:34.855Z,18.20
2022-12-11T09:38:04.361Z,17.17
2022-12-11T09:40:32.980Z,18.70
2022-12-11T09:43:07.348Z,16.40
2022-12-11T09:45:35.319Z,14.97
2022-12-11T09:48:03.715Z,15.13
2022-12-11T09:50:34.721Z,13.97
2022-12-11T09:53:13.577Z,13.33
2022-12-11T09:55:50.888Z,13.23
2022-12-11T09:58:25.849Z,13.63
2022-12-11T10:00:59.697Z,15.33
2022-12-11T10:03:51.642Z,15.60
2022-12-11T10:06:25.042Z,14.97
2022-12-11T10:09:03.943Z,13.73
2022-12-11T10:11:58.345Z,13.83
2022-12-11T10:14:36.658Z,14.03
2022-12-11T10:17:11.481Z,13.70
2022-12-11T10:19:41.961Z,14.90
2022-12-11T10:22:15.520Z,14.30
2022-12-11T10:27:41.435Z,12.37
2022-12-11T10:30:17.051Z,12.10
2022-12-11T10:32:52.012Z,13.10
2022-12-11T10:35:27.983Z,12.07
2022-12-11T10:37:58.552Z,14.87
2022-12-11T10:40:30.170Z,14.10
2022-12-11T10:42:58.000Z,17.37
2022-12-11T10:45:25.958Z,15.93
2022-12-11T10:48:03.572Z,13.03
2022-12-11T10:50:31.478Z,15.43
2022-12-11T10:52:59.740Z,13.20
2022-12-11T10:55:34.392Z,14.97
2022-12-11T10:58:05.249Z,12.60
2022-12-11T11:00:37.500Z,14.73
2022-12-11T11:03:07.413Z,13.00
2022-12-11T11:05:37.440Z,11.73
2022-12-11T11:08:14.179Z,12.00
2022-12-11T11:10:54.650Z,12.93
2022-12-11T11:13:23.848Z,10.03
2022-12-11T11:15:58.886Z,13.27
2022-12-11T11:18:28.768Z,11.87
2022-12-11T11:20:57.075Z,10.10
2022-12-11T11:23:26.150Z,11.97
2022-12-11T11:25:57.327Z,9.33
2022-12-11T11:28:28.586Z,10.80
2022-12-11T11:31:00.559Z,10.13
2022-12-11T11:33:29.481Z,10.60
2022-12-11T11:36:00.255Z,12.07
2022-12-11T11:38:32.644Z,8.97
2022-12-11T11:41:14.871Z,13.95
2022-12-11T11:43:46.844Z,12.60
2022-12-11T11:46:18.883Z,13.50
2022-12-11T11:48:54.509Z,11.27
2022-12-11T11:51:28.124Z,11.83
2022-12-11T11:54:01.128Z,12.87
2022-12-11T11:56:34.961Z,11.50
2022-12-11T11:59:09.706Z,11.70
2022-12-11T12:01:37.710Z,12.33
2022-12-11T12:04:05.974Z,12.77
2022-12-11T12:06:51.605Z,12.30
2022-12-11T12:09:32.785Z,10.93
2022-12-11T12:12:12.106Z,12.60
2022-12-11T12:14:53.873Z,11.83
2022-12-11T12:17:27.691Z,10.50
2022-12-11T12:20:06.725Z,12.03
2022-12-11T12:22:50.628Z,12.23
2022-12-11T12:25:26.597Z,11.87
2022-12-11T12:28:04.797Z,11.90
2022-12-11T12:30:39.366Z,11.77
2022-12-11T12:33:20.245Z,10.80
2022-12-11T12:35:59.755Z,12.03
2022-12-11T12:38:42.240Z,11.63
2022-12-11T12:41:16.750Z,11.77
2022-12-11T12:43:57.992Z,11.70
2022-12-11T12:46:35.917Z,11.53
2022-12-11T12:49:05.116Z,12.30
2022-12-11T12:51:33.224Z,11.70
2022-12-11T12:54:11.963Z,11.53
2022-12-11T12:56:43.483Z,11.47
2022-12-11T12:59:22.738Z,11.17
2022-12-11T13:01:54.922Z,10.77
2022-12-11T13:07:29.513Z,13.53
2022-12-11T13:10:01.128Z,15.70
2022-12-11T13:12:35.132Z,12.27
2022-12-11T13:15:04.648Z,14.03
2022-12-11T13:17:40.068Z,12.97
2022-12-11T13:20:14.956Z,12.40
2022-12-11T13:22:51.706Z,11.67
2022-12-11T13:25:24.215Z,13.00
2022-12-11T13:27:52.218Z,12.80
2022-12-11T13:30:27.277Z,12.20
2022-12-11T13:33:03.307Z,11.73
2022-12-11T13:35:32.662Z,11.90
2022-12-11T13:38:06.934Z,12.63
2022-12-11T13:40:40.162Z,13.40
2022-12-11T13:43:17.570Z,13.10
2022-12-11T13:45:50.333Z,12.93
2022-12-11T13:48:23.714Z,12.97
2022-12-11T13:50:54.621Z,12.83
2022-12-11T13:53:23.530Z,13.03
2022-12-11T13:55:58.687Z,13.53
2022-12-11T13:58:26.771Z,12.43
2022-12-11T14:01:05.491Z,12.47
2022-12-11T14:03:34.246Z,12.67
2022-12-11T14:06:04.043Z,12.10
2022-12-11T14:08:36.565Z,12.67
2022-12-11T14:11:05.698Z,12.23
2022-12-11T14:13:36.625Z,12.40
2022-12-11T14:16:08.232Z,12.47
2022-12-11T14:18:38.243Z,12.97
2022-12-11T14:21:07.560Z,12.43
2022-12-11T14:23:37.311Z,11.87
2022-12-11T14:26:18.017Z,12.20
2022-12-11T14:28:46.257Z,13.93
2022-12-11T14:31:19.492Z,12.93
2022-12-11T14:33:51.281Z,11.57
2022-12-11T14:36:20.195Z,12.23
2022-12-11T14:38:53.048Z,11.70
2022-12-11T14:41:25.981Z,12.63
2022-12-11T14:43:57.016Z,14.00
2022-12-11T14:46:44.973Z,15.20
2022-12-11T14:49:21.273Z,13.23
2022-12-11T14:51:50.302Z,13.77
2022-12-11T14:54:29.454Z,12.10
2022-12-11T14:56:58.456Z,11.33
2022-12-11T14:59:32.057Z,11.83
2022-12-11T15:02:04.049Z,12.37
2022-12-11T15:04:33.823Z,11.43
2022-12-11T15:07:01.821Z,11.53
2022-12-11T15:09:36.944Z,12.70
2022-12-11T15:12:18.338Z,16.83
2022-12-11T15:14:50.805Z,14.27
2022-12-11T15:17:21.008Z,12.93
2022-12-11T15:19:51.704Z,12.57
2022-12-11T15:22:23.664Z,11.53
2022-12-11T15:24:53.692Z,11.27
2022-12-11T15:27:30.734Z,11.43
2022-12-11T15:29:58.601Z,11.70
2022-12-11T15:32:28.073Z,12.50
2022-12-11T15:34:58.936Z,11.93
2022-12-11T15:37:29.712Z,11.10
2022-12-11T15:39:59.602Z,10.43
2022-12-11T15:42:30.223Z,11.80
2022-12-11T15:44:58.659Z,14.37
2022-12-11T15:47:29.515Z,16.07
2022-12-11T15:50:00.493Z,17.07
2022-12-11T15:52:28.387Z,15.80
2022-12-11T15:54:56.148Z,14.00
2022-12-11T15:57:25.625Z,12.97
2022-12-11T15:59:55.986Z,12.27
2022-12-11T16:02:26.472Z,12.67
2022-12-11T16:04:55.963Z,14.50
2022-12-11T16:07:25.735Z,14.13
2022-12-11T16:09:54.018Z,13.73
2022-12-11T16:12:21.853Z,15.67
2022-12-11T16:14:49.760Z,13.43
2022-12-11T16:17:17.613Z,13.63
2022-12-11T16:19:45.914Z,13.60
2022-12-11T16:22:15.695Z,15.07
2022-12-11T16:24:44.183Z,20.53
2022-12-11T16:27:12.131Z,19.40
2022-12-11T16:29:42.073Z,17.57
2022-12-11T16:32:10.330Z,17.47
2022-12-11T16:34:38.784Z,17.83
2022-12-11T16:37:07.107Z,15.10
2022-12-11T16:39:37.773Z,23.37
2022-12-11T16:42:05.938Z,16.57
2022-12-11T16:44:33.873Z,13.23
2022-12-11T16:47:01.788Z,12.90
2022-12-11T16:49:32.201Z,13.77
2022-12-11T16:52:00.047Z,13.93
2022-12-11T16:54:27.958Z,14.33
2022-12-11T16:56:57.187Z,15.17
2022-12-11T16:59:25.143Z,14.27
2022-12-11T17:01:52.998Z,16.23
2022-12-11T17:04:20.863Z,15.40
2022-12-11T17:06:48.645Z,18.27
2022-12-11T17:09:16.495Z,16.47
2022-12-11T17:11:44.485Z,14.73
2022-12-11T17:14:13.914Z,13.90
2022-12-11T17:16:41.708Z,17.40
2022-12-11T17:19:11.205Z,16.27
2022-12-11T17:21:39.026Z,15.03
2022-12-11T17:24:07.688Z,15.57
2022-12-11T17:26:36.036Z,15.50
2022-12-11T17:29:03.846Z,15.60
2022-12-11T17:31:33.236Z,14.70
2022-12-11T17:34:01.630Z,13.70
2022-12-11T17:36:29.872Z,16.57
2022-12-11T17:38:57.968Z,17.37
2022-12-11T17:41:25.955Z,19.40
2022-12-11T17:43:56.257Z,18.70
2022-12-11T17:46:24.320Z,17.90
2022-12-11T17:48:53.612Z,17.93
2022-12-11T17:51:24.471Z,19.43
2022-12-11T17:53:53.522Z,18.33
2022-12-11T17:56:21.528Z,19.60
2022-12-11T17:58:49.446Z,19.53
2022-12-11T18:01:17.383Z,18.47
2022-12-11T18:03:45.296Z,18.10
2022-12-11T18:06:16.753Z,15.27
2022-12-11T18:08:45.918Z,16.37
2022-12-11T18:11:16.298Z,18.60
2022-12-11T18:13:45.734Z,17.67
2022-12-11T18:16:17.195Z,20.97
2022-12-11T18:18:46.121Z,20.23
2022-12-11T18:21:16.620Z,23.80
2022-12-11T18:23:44.840Z,24.57
2022-12-11T18:26:14.398Z,19.50
2022-12-11T18:28:42.438Z,18.10
2022-12-11T18:31:11.052Z,16.97
2022-12-11T18:33:41.140Z,16.60
2022-12-11T18:36:10.167Z,17.37
2022-12-11T18:38:41.241Z,18.10
2022-12-11T18:41:11.380Z,18.70
2022-12-11T18:43:41.797Z,20.47
2022-12-11T18:46:11.386Z,19.47
2022-12-11T18:48:40.195Z,17.93
2022-12-11T18:51:09.544Z,18.53
2022-12-11T18:53:41.148Z,20.67
2022-12-11T18:56:11.387Z,18.13
2022-12-11T18:58:40.025Z,37.30
2022-12-11T19:01:08.995Z,21.17
2022-12-11T19:03:37.648Z,21.10
2022-12-11T19:06:12.367Z,18.63
2022-12-11T19:08:42.116Z,20.43
2022-12-11T19:11:10.710Z,21.10
2022-12-11T19:13:38.581Z,21.50
2022-12-11T19:16:06.802Z,21.10
2022-12-11T19:18:34.738Z,20.30
2022-12-11T19:21:08.883Z,19.47
2022-12-11T19:23:37.263Z,18.53
2022-12-11T19:26:10.530Z,20.33
2022-12-11T19:28:38.397Z,20.53
2022-12-11T19:31:10.074Z,22.20
2022-12-11T19:33:38.477Z,20.73
2022-12-11T19:36:09.260Z,19.60
2022-12-11T19:38:37.268Z,20.87
2022-12-11T19:41:08.147Z,21.20
2022-12-11T19:43:36.848Z,22.53
2022-12-11T19:46:06.149Z,21.40
2022-12-11T19:48:37.266Z,19.43
2022-12-11T19:51:06.496Z,17.13
2022-12-11T19:53:35.632Z,18.93
2022-12-11T19:56:03.828Z,18.53
2022-12-11T19:58:33.095Z,18.00
2022-12-11T20:01:01.333Z,19.83
2022-12-11T20:03:29.869Z,19.40
2022-12-11T20:06:01.664Z,22.50
2022-12-11T20:08:44.285Z,19.17
2022-12-11T20:11:17.913Z,21.90
2022-12-11T20:13:47.983Z,20.03
2022-12-11T20:16:17.237Z,19.07
2022-12-11T20:18:45.488Z,16.50
2022-12-11T20:21:15.835Z,17.23
2022-12-11T20:23:44.553Z,18.17
2022-12-11T20:26:15.105Z,19.83
2022-12-11T20:28:44.819Z,21.33
2022-12-11T20:31:19.914Z,21.17
2022-12-11T20:33:49.692Z,21.20
2022-12-11T20:36:20.597Z,22.50
2022-12-11T20:38:48.905Z,21.80
2022-12-11T20:41:19.877Z,22.43
2022-12-11T20:43:48.938Z,25.70
2022-12-11T20:46:20.232Z,18.53
2022-12-11T20:48:48.717Z,18.97
2022-12-11T20:51:23.964Z,19.37
2022-12-11T20:53:58.223Z,19.50
2022-12-11T20:56:29.510Z,25.67
2022-12-11T20:58:58.585Z,19.23
2022-12-11T21:01:29.397Z,24.23
2022-12-11T21:03:57.560Z,20.17
2022-12-11T21:06:28.250Z,18.90
2022-12-11T21:08:56.280Z,17.43
2022-12-11T21:11:24.741Z,16.77
2022-12-11T21:13:53.490Z,16.20
2022-12-11T21:16:22.220Z,16.47
2022-12-11T21:18:51.937Z,16.73
2022-12-11T21:21:21.187Z,16.37
2022-12-11T21:23:49.264Z,17.47
2022-12-11T21:26:17.189Z,16.00
2022-12-11T21:28:45.102Z,15.53
2022-12-11T21:31:15.595Z,16.87
2022-12-11T21:33:43.535Z,17.50
2022-12-11T21:36:14.745Z,16.40
2022-12-11T21:38:44.204Z,16.03
2022-12-11T21:41:15.509Z,16.63
2022-12-11T21:44:32.942Z,16.33
2022-12-11T21:46:31.932Z,16.47
2022-12-11T21:49:00.649Z,17.57
2022-12-11T21:51:36.461Z,19.10
2022-12-11T21:54:07.458Z,18.80
2022-12-11T21:56:35.369Z,18.63
2022-12-11T21:59:04.696Z,18.10
2022-12-11T22:01:35.960Z,23.43
2022-12-11T22:04:05.029Z,17.80
2022-12-11T22:06:34.870Z,16.53
2022-12-11T22:09:03.012Z,17.23
2022-12-11T22:11:32.926Z,23.30
2022-12-11T22:14:01.289Z,19.57
2022-12-11T22:16:30.777Z,16.60
2022-12-11T22:18:58.634Z,21.47
2022-12-11T22:21:26.665Z,19.63
2022-12-11T22:23:56.768Z,19.93
2022-12-11T22:26:27.221Z,18.73
2022-12-11T22:28:55.685Z,17.93
2022-12-11T22:31:25.761Z,17.10
2022-12-11T22:33:54.984Z,16.30
2022-12-11T22:36:23.553Z,16.63
2022-12-11T22:38:51.519Z,15.40
2022-12-11T22:41:25.087Z,16.23
2022-12-11T22:43:53.487Z,16.23
2022-12-11T22:46:24.596Z,16.37
2022-12-11T22:48:52.876Z,15.43
2022-12-11T22:51:21.417Z,15.97
2022-12-11T22:53:49.297Z,15.67
2022-12-11T22:56:17.498Z,16.63
2022-12-11T22:58:46.823Z,16.30
2022-12-11T23:01:18.259Z,15.87
2022-12-11T23:03:46.769Z,15.43
2022-12-11T23:06:17.453Z,15.20
2022-12-11T23:08:45.581Z,15.20
2022-12-11T23:11:14.899Z,14.93
2022-12-11T23:13:43.001Z,16.07
2022-12-11T23:16:12.917Z,16.13
2022-12-11T23:18:41.276Z,16.50
2022-12-11T23:21:09.598Z,15.37
2022-12-11T23:23:37.647Z,16.73
2022-12-11T23:26:07.170Z,14.80
2022-12-11T23:28:35.089Z,15.53
2022-12-11T23:31:03.125Z,15.40
2022-12-11T23:33:32.457Z,15.43
2022-12-11T23:36:01.057Z,16.10
2022-12-11T23:38:28.911Z,15.83
2022-12-11T23:40:56.862Z,16.40
2022-12-11T23:43:24.633Z,16.63
2022-12-11T23:45:53.480Z,16.37
2022-12-11T23:48:21.424Z,16.37
2022-12-11T23:50:50.696Z,16.03
2022-12-11T23:53:18.627Z,16.30
2022-12-11T23:55:47.489Z,14.40
2022-12-11T23:58:15.354Z,15.53
